Graceful Lady — 00 — position and weather

sailwx.info

Track history (hours):
 
Tides and Currents Weather Stations Pressure Air Temp Water Temp Dewpoint Dewpoint Depression Visibility Wind Speed Wind Dir Waves Ship Positions

Graceful Lady

Last reported at 2016-Feb-10 05:33 UTC. Time now 2016-Feb-10 06:45 UTC.
Position N 31°22' E 121°28'.

Length 6 m.

Type: Pollution control. MMSI: 316014038.

Date/timePositionNaut miles runAvg speedWind from/ knotsBaromVisibWave heightAir tempDewpointWater temp
2016-Feb-10 05:33N 31°22' E 121°28'65659038.6
2016-Feb-10 05:33N 23°01' E 113°32'656649.8
2016-Feb-10 04:32N 31°22' E 121°28'656472305.3
2016-Feb-10 04:32N 23°01' E 113°32'656665.2
2016-Feb-10 03:33N 31°22' E 121°28'656657.4
2016-Feb-10 02:33N 23°01' E 113°32'65642936.8
2016-Feb-10 02:32N 31°22' E 121°28'0 0.0
2016-Feb-10 01:33N 31°22' E 121°28'0 0.0
2016-Feb-10 00:31N 31°22' E 121°28'6561791.8
2016-Feb-10 00:09N 23°01' E 113°32'0 0.1
2016-Feb-09 23:33N 23°01' E 113°32'65614226.9
2016-Feb-09 23:30N 31°22' E 121°28'0 0.0
2016-Feb-09 22:32N 31°22' E 121°28'6565003.5
2016-Feb-09 22:24N 23°01' E 113°32'656769.5
2016-Feb-09 21:33N 31°22' E 121°28'6565479.5
2016-Feb-09 21:26N 23°01' E 113°32'0 0.0
2016-Feb-09 20:33N 23°01' E 113°32'65638715.9
2016-Feb-09 20:32N 31°22' E 121°28'0 0.0
2016-Feb-09 19:32N 31°22' E 121°28'656472308.7
2016-Feb-09 19:32N 23°01' E 113°32'0 0.0
2016-Feb-09 18:33N 23°01' E 113°32'65662145.9
2016-Feb-09 18:33N 31°22' E 121°28'656659.5
2016-Feb-09 17:33N 23°01' E 113°32'6569261.5
2016-Feb-09 17:29N 31°22' E 121°28'656710.0
2016-Feb-09 16:33N 23°01' E 113°32'65624858.4
2016-Feb-09 16:32N 31°22' E 121°28'0 0.0
2016-Feb-09 15:33N 31°22' E 121°28'656236152.6
2016-Feb-09 15:33N 23°01' E 113°32'0 0.0
2016-Feb-09 14:33N 23°01' E 113°32'65623381.3
2016-Feb-09 14:32N 31°22' E 121°28'656674.9
2016-Feb-09 13:33N 23°01' E 113°32'6578328.4
2016-Feb-09 13:29N 31°21' E 121°31'657713.2
2016-Feb-09 12:33N 23°01' E 113°32'657295642.1
2016-Feb-09 12:33N 31°21' E 121°31'657658.5
2016-Feb-09 11:33N 23°01' E 113°32'657236513.7
2016-Feb-09 11:33N 31°21' E 121°31'657658.8
2016-Feb-09 10:33N 23°01' E 113°32'6577964.2
2016-Feb-09 10:28N 31°21' E 121°31'657712.0
2016-Feb-09 09:33N 23°01' E 113°32'65721502.5
2016-Feb-09 09:31N 31°21' E 121°31'657673.7
2016-Feb-09 08:33N 23°01' E 113°32'65716313.8
2016-Feb-09 08:30N 31°21' E 121°30'657674.7
2016-Feb-09 07:32N 23°01' E 113°32'65794619.2
2016-Feb-09 07:31N 31°21' E 121°31'0 0.1
2016-Feb-09 06:31N 31°21' E 121°31'6576552.7
2016-Feb-09 06:25N 23°01' E 113°32'0 0.1
2016-Feb-09 05:33N 23°01' E 113°32'6575463.3
2016-Feb-09 05:25N 31°21' E 121°31'0 0.0
2016-Feb-09 04:33N 31°21' E 121°31'65769577.0
2016-Feb-09 04:32N 23°01' E 113°32'0 0.1
2016-Feb-09 03:33N 23°01' E 113°32'6579981.0
2016-Feb-09 03:29N 31°21' E 121°31'0 0.0
2016-Feb-09 02:31N 31°21' E 121°31'6579276.4
2016-Feb-09 02:27N 23°01' E 113°32'657739.4
2016-Feb-09 01:33N 31°21' E 121°30'65738776.6
2016-Feb-09 01:32N 23°01' E 113°32'657651.6
2016-Feb-09 00:32N 31°21' E 121°30'0 0.0
2016-Feb-08 23:31N 31°21' E 121°30'65737547.6
2016-Feb-08 23:30N 23°01' E 113°32'0 0.0
2016-Feb-08 22:34N 23°01' E 113°32'65731966.2
2016-Feb-08 22:32N 31°21' E 121°30'657666.9
2016-Feb-08 21:33N 23°01' E 113°32'657157691.5
2016-Feb-08 21:33N 31°21' E 121°30'657652.3
2016-Feb-08 20:33N 23°01' E 113°32'657295671.5
2016-Feb-08 20:32N 31°21' E 121°30'657669.9
2016-Feb-08 19:34N 23°01' E 113°32'65732404.1
2016-Feb-08 19:32N 31°21' E 121°30'0 0.1
2016-Feb-08 18:30N 31°21' E 121°31'6574015.9
2016-Feb-08 18:20N 23°01' E 113°32'0 0.1
2016-Feb-08 17:33N 23°01' E 113°32'65744634.3
2016-Feb-08 17:32N 31°21' E 121°31'0 0.0
2016-Feb-08 16:33N 31°21' E 121°31'6571182746.5
2016-Feb-08 16:33N 23°01' E 113°32'0 0.1
2016-Feb-08 15:34N 23°01' E 113°32'65737549.5
2016-Feb-08 15:32N 31°21' E 121°31'0 0.1
2016-Feb-08 14:33N 31°21' E 121°31'65798557.0
2016-Feb-08 14:33N 23°01' E 113°32'657629.8
2016-Feb-08 13:30N 31°21' E 121°30'65798563.0
2016-Feb-08 13:30N 23°01' E 113°32'0 0.0
2016-Feb-08 12:33N 23°01' E 113°32'65727829.2
2016-Feb-08 12:32N 31°21' E 121°30'657676.8
2016-Feb-08 11:34N 23°01' E 113°32'65751420.4
2016-Feb-08 11:33N 31°21' E 121°30'0 0.0
2016-Feb-08 10:33N 31°21' E 121°30'657295687.1
2016-Feb-08 10:33N 23°01' E 113°32'0 0.1
2016-Feb-08 09:33N 23°01' E 113°32'6573968.7
2016-Feb-08 09:23N 31°21' E 121°30'657787.4
2016-Feb-08 08:33N 23°01' E 113°32'6574721.6
2016-Feb-08 08:25N 31°21' E 121°30'657768.2
2016-Feb-08 07:34N 23°01' E 113°32'6579538.4
2016-Feb-08 07:29N 31°21' E 121°31'657654.9
2016-Feb-08 06:29N 23°01' E 113°32'65740788.2
2016-Feb-08 06:28N 31°21' E 121°31'0 0.0
2016-Feb-08 05:33N 31°21' E 121°31'65717142.4
2016-Feb-08 05:31N 23°01' E 113°32'0 0.1
2016-Feb-08 04:32N 23°01' E 113°32'65722107.6
2016-Feb-08 04:30N 31°21' E 121°31'0 0.0
2016-Feb-08 03:32N 31°21' E 121°31'657139153.0
2016-Feb-08 03:32N 23°01' E 113°32'657657.7
2016-Feb-08 02:32N 31°21' E 121°30'6571685.6
2016-Feb-08 02:08N 23°01' E 113°32'0 0.1
2016-Feb-08 01:33N 23°01' E 113°32'65737536.7
2016-Feb-08 01:32N 31°21' E 121°30'0 0.0
2016-Feb-08 00:33N 31°21' E 121°30'657658.0
2016-Feb-07 23:33N 23°01' E 113°32'6577628.9
2016-Feb-07 23:28N 31°21' E 121°30'0 0.0
2016-Feb-07 22:33N 31°21' E 121°30'65733307.7
2016-Feb-07 22:32N 23°01' E 113°32'0 0.1
2016-Feb-07 21:33N 23°01' E 113°32'6573583.3
2016-Feb-07 21:22N 31°21' E 121°30'657796.0
2016-Feb-07 20:33N 23°01' E 113°32'65723415.5
2016-Feb-07 20:31N 31°21' E 121°30'657680.1
2016-Feb-07 19:33N 23°01' E 113°32'657394227.3
2016-Feb-07 19:33N 31°22' E 121°30'0 0.0
2016-Feb-07 18:33N 31°22' E 121°30'657788454.5
2016-Feb-07 18:33N 23°01' E 113°32'0 0.0
2016-Feb-07 17:33N 23°01' E 113°32'657107516.5
2016-Feb-07 17:33N 31°22' E 121°30'657661.5
2016-Feb-07 16:33N 23°01' E 113°32'65711210.8
2016-Feb-07 16:30N 31°22' E 121°30'657689.6
2016-Feb-07 15:33N 23°01' E 113°32'65746379.3
2016-Feb-07 15:32N 31°22' E 121°30'236951.1
2016-Feb-07 15:32N 31°40' E 121°13'0 0.1
2016-Feb-07 14:33N 31°40' E 121°13'235946.4
2016-Feb-07 14:33N 31°22' E 121°30'657262816.3
2016-Feb-07 14:33N 23°01' E 113°32'0 0.0
2016-Feb-07 13:33N 23°01' E 113°32'65750326.5
2016-Feb-07 13:33N 31°22' E 121°30'23325.1
2016-Feb-07 13:28N 31°40' E 121°13'2325.2
2016-Feb-07 12:33N 31°22' E 121°30'65744631.8
2016-Feb-07 12:32N 23°01' E 113°32'66168038.3
2016-Feb-07 12:32N 31°40' E 121°13'661667.9
2016-Feb-07 11:32N 23°01' E 113°32'657168953.3
2016-Feb-07 11:32N 31°22' E 121°30'0 0.0
2016-Feb-07 10:33N 31°22' E 121°30'6574778.5
2016-Feb-07 10:24N 23°01' E 113°32'6612079.7
2016-Feb-07 10:05N 31°40' E 121°13'0 0.0
2016-Feb-07 09:33N 31°40' E 121°13'2341598.9
2016-Feb-07 09:33N 31°22' E 121°30'65724136.5
2016-Feb-07 09:31N 23°01' E 113°32'0 0.0
2016-Feb-07 08:33N 23°01' E 113°32'65723655.2
2016-Feb-07 08:32N 31°22' E 121°30'2283.4
2016-Feb-07 08:16N 31°39' E 121°13'660928.0
2016-Feb-07 07:33N 23°01' E 113°32'6571182760.0
2016-Feb-07 07:33N 31°22' E 121°30'657661.1
2016-Feb-07 06:33N 23°01' E 113°32'657262833.7
2016-Feb-07 06:33N 31°22' E 121°30'23169.7
2016-Feb-07 06:25N 31°40' E 121°14'0 0.0
2016-Feb-07 05:33N 31°40' E 121°14'662125347.0
2016-Feb-07 05:33N 23°01' E 113°32'65716776.8
2016-Feb-07 05:31N 31°22' E 121°30'0 0.0
2016-Feb-07 04:33N 31°22' E 121°30'657124496.0
2016-Feb-07 04:32N 23°01' E 113°32'6627657.9
2016-Feb-07 04:27N 31°40' E 121°14'2325.0
2016-Feb-07 03:33N 31°22' E 121°30'65724385.8
2016-Feb-07 03:31N 23°01' E 113°32'0 0.0
2016-Feb-07 02:33N 23°01' E 113°32'657337915.3
2016-Feb-07 02:33N 31°22' E 121°30'0 0.0
2016-Feb-07 01:31N 31°22' E 121°30'6574301.0
2016-Feb-07 01:22N 23°01' E 113°32'0 0.1
2016-Feb-07 00:33N 23°01' E 113°32'6576738.7
2016-Feb-07 00:27N 31°22' E 121°30'0 0.1
2016-Feb-06 23:33N 31°22' E 121°30'657591360.0
2016-Feb-06 23:33N 23°01' E 113°32'0 0.1
2016-Feb-06 22:33N 23°01' E 113°32'65727506.6
2016-Feb-06 22:32N 31°22' E 121°30'657672.8
2016-Feb-06 21:33N 23°01' E 113°32'66026390.9
2016-Feb-06 21:32N 31°25' E 121°30'7 7.5
2016-Feb-06 20:33N 31°29' E 121°24'659139607.9
2016-Feb-06 20:33N 23°01' E 113°32'0 0.1
2016-Feb-06 19:33N 23°01' E 113°32'6596112.0
2016-Feb-06 19:27N 31°30' E 121°22'1138.2
2016-Feb-06 19:10N 31°21' E 121°30'1117.9
2016-Feb-06 18:34N 31°30' E 121°22'65964092.9
2016-Feb-06 18:33N 23°01' E 113°32'65711883.3
2016-Feb-06 18:30N 31°21' E 121°30'657699.5
2016-Feb-06 17:33N 23°01' E 113°32'65917698.2
2016-Feb-06 17:31N 31°30' E 121°22'11548.1
2016-Feb-06 17:30N 31°21' E 121°30'657696.6
2016-Feb-06 16:33N 23°01' E 113°32'65742230.7
2016-Feb-06 16:32N 31°21' E 121°30'11252.7
2016-Feb-06 16:30N 31°30' E 121°22'659699.4
2016-Feb-06 15:33N 23°01' E 113°32'65739415.6
2016-Feb-06 15:32N 31°21' E 121°30'11297.1
2016-Feb-06 15:30N 31°30' E 121°22'659695.6
2016-Feb-06 14:33N 23°01' E 113°32'6571182396.4
2016-Feb-06 14:33N 31°21' E 121°30'11182.7
2016-Feb-06 14:30N 31°30' E 121°22'1111.5
2016-Feb-06 13:33N 31°21' E 121°30'657214994.0
2016-Feb-06 13:33N 23°01' E 113°32'65913629.8
2016-Feb-06 13:30N 31°30' E 121°22'1111.4
2016-Feb-06 12:33N 31°21' E 121°30'65765689.1
2016-Feb-06 12:33N 23°01' E 113°32'6595391.3
2016-Feb-06 12:25N 31°30' E 121°22'1112.6
2016-Feb-06 11:33N 31°21' E 121°30'657181907.1
2016-Feb-06 11:33N 23°01' E 113°32'657659.3
2016-Feb-06 10:33N 31°21' E 121°30'65932948.3
2016-Feb-06 10:32N 22°58' E 113°32'659668.1
2016-Feb-06 09:33N 31°21' E 121°30'1167.0
2016-Feb-06 09:23N 31°31' E 121°23'1113.8
2016-Feb-06 08:33N 31°21' E 121°30'115843.4
2016-Feb-06 08:33N 31°31' E 121°23'1111.0
2016-Feb-06 07:31N 31°21' E 121°30'11364.7
2016-Feb-06 07:29N 31°31' E 121°23'1112.1
2016-Feb-06 06:33N 31°21' E 121°30'11480.6
2016-Feb-06 06:32N 31°31' E 121°23'0 0.0
2016-Feb-06 05:28N 31°31' E 121°23'0 0.0
2016-Feb-06 01:15N 31°31' E 121°23'0 0.0
2016-Feb-05 23:08N 31°31' E 121°23'0 0.0
2016-Feb-05 22:32N 31°31' E 121°23'0 0.0
2016-Feb-05 21:30N 31°31' E 121°23'0 0.0
2016-Feb-05 20:30N 31°31' E 121°23'0 0.0
2016-Feb-05 19:32N 31°31' E 121°23'0 0.0
2016-Feb-05 18:28N 31°31' E 121°23'0 0.0
2016-Feb-05 17:22N 31°31' E 121°23'0 0.0
2016-Feb-05 13:22N 31°31' E 121°23'0 0.0
2016-Feb-05 11:14N 31°31' E 121°23'0 0.0
2016-Feb-05 10:29N 31°31' E 121°23'0 0.2
2016-Feb-05 09:33N 31°30' E 121°23'659131.7
2016-Feb-05 04:33N 23°02' E 113°31'6 5.9
2016-Feb-05 03:33N 23°06' E 113°26'0 0.0
2016-Feb-05 02:33N 23°06' E 113°26'0 0.0
2016-Feb-05 01:33N 23°06' E 113°26'6592001.6
2016-Feb-05 01:13N 31°31' E 121°21'659989.9
2016-Feb-05 00:33N 23°06' E 113°26'65950450.4
2016-Feb-05 00:33N 31°32' E 121°20'659667.4
2016-Feb-04 23:33N 23°05' E 113°26'65928570.8
2016-Feb-04 23:32N 31°32' E 121°20'0 0.0
2016-Feb-04 22:31N 31°32' E 121°20'659674.2
2016-Feb-04 21:32N 23°05' E 113°26'6597229.7
2016-Feb-04 21:27N 31°32' E 121°20'659734.8
2016-Feb-04 20:33N 23°05' E 113°26'0 0.0
2016-Feb-04 19:33N 23°05' E 113°26'0 0.0
2016-Feb-04 18:33N 23°05' E 113°26'619224229.7
2016-Feb-04 18:18N 49°18' W 122°53'0 0.0
2016-Feb-04 17:33N 49°18' W 122°53'619211145692.4
2016-Feb-04 17:33N 23°05' E 113°26'6594551.5
2016-Feb-04 17:24N 31°32' E 121°20'659775.4
2016-Feb-04 16:33N 23°05' E 113°26'61921173229.8
2016-Feb-04 16:33N 49°18' W 122°53'5396179860.2
2016-Feb-04 16:31N 31°32' E 121°20'659682.8
2016-Feb-04 15:33N 23°05' E 113°26'659790438.9
2016-Feb-04 15:33N 31°32' E 121°20'53961294994.8
2016-Feb-04 15:33N 49°18' W 122°53'61926223.0
2016-Feb-04 14:33N 23°05' E 113°26'61921238374.8
2016-Feb-04 14:33N 49°18' W 122°53'5396176590.0
2016-Feb-04 14:31N 31°32' E 121°20'658682.5
2016-Feb-04 13:33N 23°06' E 113°27'61911238232.1
2016-Feb-04 13:33N 49°18' W 122°53'5396882950.1
2016-Feb-04 13:33N 31°32' E 121°20'658665.4
2016-Feb-04 12:33N 23°06' E 113°27'658338407.0
2016-Feb-04 12:33N 31°32' E 121°20'53961942490.3
2016-Feb-04 12:33N 49°18' W 122°53'61916220.5
2016-Feb-04 11:33N 23°06' E 113°27'61911311068.2
2016-Feb-04 11:33N 49°18' W 122°53'0 0.0
2016-Feb-04 10:33N 49°18' W 122°53'6192928755.3
2016-Feb-04 10:33N 23°06' E 113°26'61926235.0
2016-Feb-04 09:33N 49°18' W 122°53'61924458254.0
2016-Feb-04 09:33N 23°05' E 113°27'0 0.0
2016-Feb-04 08:33N 23°05' E 113°27'61921486085.2
2016-Feb-04 08:33N 49°18' W 122°53'0 0.0
2016-Feb-04 07:33N 49°18' W 122°53'6194108239.7
2016-Feb-04 07:30N 22°58' E 113°32'66314455.1
2016-Feb-04 07:27N 31°41' E 121°10'53966015.5
2016-Feb-04 06:33N 49°18' W 122°53'0 0.0
2016-Feb-04 05:33N 49°18' W 122°53'539712478.6
2016-Feb-04 05:07N 31°21' E 121°30'0 0.0
2016-Feb-04 04:33N 31°21' E 121°30'5397747273.5
2016-Feb-04 04:33N 49°18' W 122°53'0 0.0
2016-Feb-04 03:33N 49°18' W 122°53'5397777164.5
2016-Feb-04 03:33N 31°21' E 121°30'53975437.8
2016-Feb-04 02:33N 49°18' W 122°53'539782677.1
2016-Feb-04 02:29N 31°21' E 121°30'53975777.3
2016-Feb-04 01:33N 49°18' W 122°53'539721563.8
2016-Feb-04 01:18N 31°21' E 121°30'53977201.3
2016-Feb-04 00:33N 49°18' W 122°53'539719428977.5
2016-Feb-04 00:33N 31°21' E 121°30'53975395.4
2016-Feb-03 23:33N 49°18' W 122°53'539750074.7
2016-Feb-03 23:27N 31°21' E 121°30'53976052.6
2016-Feb-03 22:33N 49°18' W 122°53'539782676.4
2016-Feb-03 22:29N 31°21' E 121°30'53975773.8
2016-Feb-03 21:33N 49°18' W 122°53'5394129454.6
2016-Feb-03 21:31N 31°25' E 121°30'53945626.8
2016-Feb-03 20:33N 49°18' W 122°53'0 0.0
2016-Feb-03 19:33N 49°18' W 122°53'0 0.0
2016-Feb-03 18:33N 49°18' W 122°53'0 0.0
2016-Feb-03 17:33N 49°18' W 122°53'0 0.0
2016-Feb-03 16:33N 49°18' W 122°53'0 0.0
2016-Feb-03 15:33N 49°18' W 122°53'0 0.0
2016-Feb-03 14:33N 49°18' W 122°53'0 0.0
2016-Feb-03 13:33N 49°18' W 122°53'0 0.0
2016-Feb-03 12:33N 49°18' W 122°53'0 0.0
2016-Feb-03 11:33N 49°18' W 122°53'0 0.0
2016-Feb-03 10:33N 49°18' W 122°53'0 0.0
2016-Feb-03 09:33N 49°18' W 122°53'0 0.0
2016-Feb-03 08:33N 49°18' W 122°53'0 0.0
2016-Feb-03 07:33N 49°18' W 122°53'0 0.0
2016-Feb-03 06:33N 49°18' W 122°53'53963237585.2
2016-Feb-03 06:33N 31°59' E 120°49'53965408.0
2016-Feb-03 05:33N 49°18' W 122°53'0 0.0
2016-Feb-03 04:33N 49°18' W 122°53'539640895.8
2016-Feb-03 04:25N 31°59' E 120°49'53966218.1
2016-Feb-03 03:33N 49°18' W 122°53'0 0.0
2016-Feb-03 02:33N 49°18' W 122°53'539612436.4
2016-Feb-03 02:07N 31°59' E 120°49'53969541.1
2016-Feb-03 01:33N 49°18' W 122°53'539614107.3
2016-Feb-03 01:10N 31°59' E 120°49'53968734.6
2016-Feb-03 00:33N 49°18' W 122°53'0 0.0
2016-Feb-02 23:33N 49°18' W 122°53'0 0.0
2016-Feb-02 22:33N 49°18' W 122°53'0 0.0
2016-Feb-02 21:30N 49°18' W 122°53'539623689.6
2016-Feb-02 21:17N 31°59' E 120°49'53967471.3
2016-Feb-02 20:33N 49°18' W 122°53'0 0.0
2016-Feb-02 19:33N 49°18' W 122°53'0 0.0
2016-Feb-02 18:27N 49°18' W 122°53'0 0.0
2016-Feb-02 17:33N 49°18' W 122°53'175114166.4
2016-Feb-02 17:26N 29°33' W 095°04'17511998.1
2016-Feb-02 16:33N 49°18' W 122°53'175175048.0
2016-Feb-02 16:32N 29°33' W 095°04'0 0.0
2016-Feb-02 15:32N 29°33' W 095°04'175113855.0
2016-Feb-02 15:24N 49°18' W 122°53'539516715.7
2016-Feb-02 15:05N 31°59' E 120°49'539510233.7
2016-Feb-02 14:33N 49°18' W 122°53'175175048.0
2016-Feb-02 14:32N 29°33' W 095°04'743326600.4
2016-Feb-02 14:15N 32°00' E 120°46'3 4.3
2016-Feb-02 13:32N 32°00' E 120°42'74371673244.1
2016-Feb-02 13:32N 29°33' W 095°04'175165666.9
2016-Feb-02 13:30N 49°18' W 122°53'17511799.6
2016-Feb-02 12:32N 29°33' W 095°04'1751180114.8
2016-Feb-02 12:31N 49°18' W 122°53'0 0.0
2016-Feb-02 11:33N 49°18' W 122°53'175174165.1
2016-Feb-02 11:32N 29°33' W 095°04'17511792.5
2016-Feb-02 10:33N 49°18' W 122°53'175175048.0
2016-Feb-02 10:32N 29°33' W 095°04'17511793.5
2016-Feb-02 09:33N 49°18' W 122°53'61944459477.8
2016-Feb-02 09:33N 22°59' E 113°32'8157376455.2
2016-Feb-02 09:32N 29°33' W 095°04'743523192.6
2016-Feb-02 09:13N 32°02' E 120°43'4 5.8
2016-Feb-02 08:32N 32°01' E 120°48'74316688285.6
2016-Feb-02 08:32N 29°33' W 095°04'175165667.0
2016-Feb-02 08:30N 49°18' W 122°53'0 0.0
2016-Feb-02 07:33N 49°18' W 122°53'175175952.2
2016-Feb-02 07:32N 29°33' W 095°04'7430107427.5
2016-Feb-02 07:28N 31°57' E 120°52'53965945.6
2016-Feb-02 06:33N 49°18' W 122°53'61922026507.2
2016-Feb-02 06:33N 23°06' E 113°26'8157396842.7
2016-Feb-02 06:32N 29°33' W 095°04'17511794.5
2016-Feb-02 05:33N 49°18' W 122°53'61921714738.9
2016-Feb-02 05:33N 23°06' E 113°26'8157402278.8
2016-Feb-02 05:32N 29°33' W 095°04'17511792.9
2016-Feb-02 04:33N 49°18' W 122°53'61922026509.6
2016-Feb-02 04:33N 23°06' E 113°26'8157402279.1
2016-Feb-02 04:32N 29°33' W 095°04'17511794.0
2016-Feb-02 03:33N 49°18' W 122°53'61922476845.1
2016-Feb-02 03:33N 23°06' E 113°26'8157386399.6
2016-Feb-02 03:32N 29°33' W 095°04'17511793.0
2016-Feb-02 02:33N 49°18' W 122°53'61922786450.7
2016-Feb-02 02:33N 23°06' E 113°26'8157386399.5
2016-Feb-02 02:32N 29°33' W 095°04'81568332.3
2016-Feb-02 01:33N 23°06' E 113°27'8156396797.8
2016-Feb-02 01:32N 29°33' W 095°04'175113794.4
2016-Feb-02 01:24N 49°18' W 122°53'0 0.0
2016-Feb-02 00:33N 49°18' W 122°53'61911013094.8
2016-Feb-02 00:33N 23°06' E 113°27'8156473583.6
2016-Feb-02 00:32N 29°33' W 095°04'17511793.5
2016-Feb-01 23:33N 49°18' W 122°53'6191268531.1
2016-Feb-01 23:32N 23°06' E 113°27'815629362165.8
2016-Feb-01 23:32N 29°33' W 095°04'17511792.9
2016-Feb-01 22:33N 49°18' W 122°53'61915572021.2
2016-Feb-01 22:33N 23°06' E 113°27'8156367027.1
2016-Feb-01 22:32N 29°33' W 095°04'17511793.5
2016-Feb-01 21:34N 49°18' W 122°53'175175952.2
2016-Feb-01 21:32N 29°33' W 095°04'17511692.8
2016-Feb-01 20:30N 49°18' W 122°53'1751110596.8
2016-Feb-01 20:29N 29°33' W 095°04'0 0.0
2016-Feb-01 19:32N 29°33' W 095°04'175150432.3
2016-Feb-01 19:30N 49°18' W 122°53'61911061337.4
2016-Feb-01 19:30N 23°06' E 113°27'0 0.0
2016-Feb-01 18:33N 23°06' E 113°27'8156554003.3
2016-Feb-01 18:32N 29°33' W 095°04'175150432.2
2016-Feb-01 18:30N 49°18' W 122°53'17511814.6
2016-Feb-01 17:32N 29°33' W 095°04'8157978811.3
2016-Feb-01 17:32N 23°06' E 113°26'6192234630.1
2016-Feb-01 17:30N 49°18' W 122°53'61926544.3
2016-Feb-01 16:33N 23°06' E 113°26'8157425570.1
2016-Feb-01 16:32N 29°33' W 095°04'175112998.0
2016-Feb-01 16:24N 49°18' W 122°53'0 0.0
2016-Feb-01 15:33N 49°18' W 122°53'6192796066.6
2016-Feb-01 15:33N 23°06' E 113°26'81571048726.0
2016-Feb-01 15:32N 29°33' W 095°04'81578288.0
2016-Feb-01 14:33N 23°06' E 113°26'619222289863.8
2016-Feb-01 14:33N 49°18' W 122°53'1751112571.8
2016-Feb-01 14:32N 29°33' W 095°04'81578335.0
2016-Feb-01 13:33N 23°06' E 113°26'8157386372.6
2016-Feb-01 13:32N 29°33' W 095°04'175151672.3
2016-Feb-01 13:30N 49°18' W 122°53'61926550.1
2016-Feb-01 12:33N 23°06' E 113°26'8157396815.2
2016-Feb-01 12:32N 29°33' W 095°04'175149638.1
2016-Feb-01 12:30N 49°18' W 122°53'61926429.2
2016-Feb-01 11:32N 23°06' E 113°26'81577341088.3
2016-Feb-01 11:32N 29°33' W 095°04'175149250.4
2016-Feb-01 11:30N 49°18' W 122°53'17511815.7
2016-Feb-01 10:32N 29°33' W 095°04'175149638.1
2016-Feb-01 10:30N 49°18' W 122°53'17511814.6
2016-Feb-01 09:32N 29°33' W 095°04'175150032.0
2016-Feb-01 09:30N 49°18' W 122°53'17511814.6
2016-Feb-01 08:32N 29°33' W 095°04'175150839.0
2016-Feb-01 08:30N 49°18' W 122°53'17511814.1
2016-Feb-01 07:32N 29°33' W 095°04'175150432.3
2016-Feb-01 07:30N 49°18' W 122°53'517992299.0
2016-Feb-01 07:27N 38°59' E 117°43'51795793.8
2016-Feb-01 06:33N 49°18' W 122°53'5177887552.6
2016-Feb-01 06:33N 38°57' E 117°47'7320798555.7
2016-Feb-01 06:32N 29°33' W 095°04'0 0.0
2016-Feb-01 05:32N 29°33' W 095°04'175150432.1
2016-Feb-01 05:30N 49°18' W 122°53'17511814.6
2016-Feb-01 04:32N 29°33' W 095°04'175150032.0
2016-Feb-01 04:30N 49°18' W 122°53'17511814.6
2016-Feb-01 03:32N 29°33' W 095°04'175150031.9
2016-Feb-01 03:30N 49°18' W 122°53'17511815.2
2016-Feb-01 02:32N 29°33' W 095°04'175150032.0
2016-Feb-01 02:30N 49°18' W 122°53'17511814.6
2016-Feb-01 01:32N 29°33' W 095°04'175150032.0
2016-Feb-01 01:30N 49°18' W 122°53'17511815.2
2016-Feb-01 00:32N 29°33' W 095°04'175112971.2
2016-Feb-01 00:24N 49°18' W 122°53'0 0.0
2016-Jan-31 23:33N 49°18' W 122°53'1751112571.5
2016-Jan-31 23:32N 29°33' W 095°04'0 0.0
2016-Jan-31 22:32N 29°33' W 095°04'175150432.1
2016-Jan-31 22:30N 49°18' W 122°53'17511814.6
2016-Jan-31 21:32N 29°33' W 095°04'175112998.0
2016-Jan-31 21:24N 49°18' W 122°53'17512025.1
2016-Jan-31 20:32N 29°33' W 095°04'175149638.0
2016-Jan-31 20:30N 49°18' W 122°53'17511814.6
2016-Jan-31 19:32N 29°33' W 095°04'175150432.2
2016-Jan-31 19:30N 49°18' W 122°53'17511814.1
2016-Jan-31 18:32N 29°33' W 095°04'175150031.9
2016-Jan-31 18:30N 49°18' W 122°53'17511815.2
2016-Jan-31 17:32N 29°33' W 095°04'175151252.3
2016-Jan-31 17:30N 49°18' W 122°53'17511813.6
2016-Jan-31 16:32N 29°33' W 095°04'175149638.1
2016-Jan-31 16:30N 49°18' W 122°53'17511815.7
2016-Jan-31 15:32N 29°33' W 095°04'175150839.0
2016-Jan-31 15:30N 49°18' W 122°53'17511813.1
2016-Jan-31 14:32N 29°33' W 095°04'175150031.9
2016-Jan-31 14:30N 49°18' W 122°53'0 0.0
2016-Jan-31 13:33N 49°18' W 122°53'1751116741.4
2016-Jan-31 13:32N 29°33' W 095°04'815857248.8
2016-Jan-31 13:24N 22°53' E 113°34'8 9.7
2016-Jan-31 12:33N 23°00' E 113°31'8156624701.9
2016-Jan-31 12:32N 29°33' W 095°04'175150031.9
2016-Jan-31 12:30N 49°18' W 122°53'0 0.0
2016-Jan-31 11:33N 49°18' W 122°53'1751114618.8
2016-Jan-31 11:32N 29°33' W 095°04'81563262429.4
2016-Jan-31 11:32N 23°06' E 113°27'65618451.0
2016-Jan-31 11:30N 31°21' E 121°30'53975699.3
2016-Jan-31 10:33N 49°18' W 122°53'6191518321.5
2016-Jan-31 10:33N 23°06' E 113°27'81562669259.4
2016-Jan-31 10:32N 29°33' W 095°04'74204451773.5
2016-Jan-31 10:32N 31°21' E 121°30'0 0.1
2016-Jan-31 09:33N 31°21' E 121°30'74201027336.4
2016-Jan-31 09:32N 29°33' W 095°04'81561012478.1
2016-Jan-31 09:32N 23°06' E 113°27'6191232164.8
2016-Jan-31 09:30N 49°18' W 122°53'61916526.4
2016-Jan-31 08:33N 23°06' E 113°27'619111143911.4
2016-Jan-31 08:33N 49°18' W 122°53'1751114618.8
2016-Jan-31 08:32N 29°33' W 095°04'7420503976.6
2016-Jan-31 08:32N 31°21' E 121°30'656668.9
2016-Jan-31 07:33N 23°06' E 113°27'81561957457.6
2016-Jan-31 07:32N 29°33' W 095°04'175149250.4
2016-Jan-31 07:30N 49°18' W 122°53'0 0.0
2016-Jan-31 06:33N 49°18' W 122°53'61911392988.9
2016-Jan-31 06:33N 23°06' E 113°27'8156772680.3
2016-Jan-31 06:32N 29°33' W 095°04'81568296.7
2016-Jan-31 05:33N 23°06' E 113°27'  
Track history (hours):
 
Tides and Currents Weather Stations Pressure Air Temp Water Temp Dewpoint Dewpoint Depression Visibility Wind Speed Wind Dir Waves Ship Positions

Graceful Lady

Last reported at 2016-Feb-10 05:33 UTC. Time now 2016-Feb-10 06:45 UTC.
Position N 31°22' E 121°28'.

Length 6 m.

Type: Pollution control. MMSI: 316014038.

Date/timePositionNaut miles runAvg speedWind from/ knotsBaromVisibWave heightAir tempDewpointWater temp
2016-Feb-10 05:33N 31°22' E 121°28'65659038.6
2016-Feb-10 05:33N 23°01' E 113°32'656649.8
2016-Feb-10 04:32N 31°22' E 121°28'656472305.3
2016-Feb-10 04:32N 23°01' E 113°32'656665.2
2016-Feb-10 03:33N 31°22' E 121°28'656657.4
2016-Feb-10 02:33N 23°01' E 113°32'65642936.8
2016-Feb-10 02:32N 31°22' E 121°28'0 0.0
2016-Feb-10 01:33N 31°22' E 121°28'0 0.0
2016-Feb-10 00:31N 31°22' E 121°28'6561791.8
2016-Feb-10 00:09N 23°01' E 113°32'0 0.1
2016-Feb-09 23:33N 23°01' E 113°32'65614226.9
2016-Feb-09 23:30N 31°22' E 121°28'0 0.0
2016-Feb-09 22:32N 31°22' E 121°28'6565003.5
2016-Feb-09 22:24N 23°01' E 113°32'656769.5
2016-Feb-09 21:33N 31°22' E 121°28'6565479.5
2016-Feb-09 21:26N 23°01' E 113°32'0 0.0
2016-Feb-09 20:33N 23°01' E 113°32'65638715.9
2016-Feb-09 20:32N 31°22' E 121°28'0 0.0
2016-Feb-09 19:32N 31°22' E 121°28'656472308.7
2016-Feb-09 19:32N 23°01' E 113°32'0 0.0
2016-Feb-09 18:33N 23°01' E 113°32'65662145.9
2016-Feb-09 18:33N 31°22' E 121°28'656659.5
2016-Feb-09 17:33N 23°01' E 113°32'6569261.5
2016-Feb-09 17:29N 31°22' E 121°28'656710.0
2016-Feb-09 16:33N 23°01' E 113°32'65624858.4
2016-Feb-09 16:32N 31°22' E 121°28'0 0.0
2016-Feb-09 15:33N 31°22' E 121°28'656236152.6
2016-Feb-09 15:33N 23°01' E 113°32'0 0.0
2016-Feb-09 14:33N 23°01' E 113°32'65623381.3
2016-Feb-09 14:32N 31°22' E 121°28'656674.9
2016-Feb-09 13:33N 23°01' E 113°32'6578328.4
2016-Feb-09 13:29N 31°21' E 121°31'657713.2
2016-Feb-09 12:33N 23°01' E 113°32'657295642.1
2016-Feb-09 12:33N 31°21' E 121°31'657658.5
2016-Feb-09 11:33N 23°01' E 113°32'657236513.7
2016-Feb-09 11:33N 31°21' E 121°31'657658.8
2016-Feb-09 10:33N 23°01' E 113°32'6577964.2
2016-Feb-09 10:28N 31°21' E 121°31'657712.0
2016-Feb-09 09:33N 23°01' E 113°32'65721502.5
2016-Feb-09 09:31N 31°21' E 121°31'657673.7
2016-Feb-09 08:33N 23°01' E 113°32'65716313.8
2016-Feb-09 08:30N 31°21' E 121°30'657674.7
2016-Feb-09 07:32N 23°01' E 113°32'65794619.2
2016-Feb-09 07:31N 31°21' E 121°31'0 0.1
2016-Feb-09 06:31N 31°21' E 121°31'6576552.7
2016-Feb-09 06:25N 23°01' E 113°32'0 0.1
2016-Feb-09 05:33N 23°01' E 113°32'6575463.3
2016-Feb-09 05:25N 31°21' E 121°31'0 0.0
2016-Feb-09 04:33N 31°21' E 121°31'65769577.0
2016-Feb-09 04:32N 23°01' E 113°32'0 0.1
2016-Feb-09 03:33N 23°01' E 113°32'6579981.0
2016-Feb-09 03:29N 31°21' E 121°31'0 0.0
2016-Feb-09 02:31N 31°21' E 121°31'6579276.4
2016-Feb-09 02:27N 23°01' E 113°32'657739.4
2016-Feb-09 01:33N 31°21' E 121°30'65738776.6
2016-Feb-09 01:32N 23°01' E 113°32'657651.6
2016-Feb-09 00:32N 31°21' E 121°30'0 0.0
2016-Feb-08 23:31N 31°21' E 121°30'65737547.6
2016-Feb-08 23:30N 23°01' E 113°32'0 0.0
2016-Feb-08 22:34N 23°01' E 113°32'65731966.2
2016-Feb-08 22:32N 31°21' E 121°30'657666.9
2016-Feb-08 21:33N 23°01' E 113°32'657157691.5
2016-Feb-08 21:33N 31°21' E 121°30'657652.3
2016-Feb-08 20:33N 23°01' E 113°32'657295671.5
2016-Feb-08 20:32N 31°21' E 121°30'657669.9
2016-Feb-08 19:34N 23°01' E 113°32'65732404.1
2016-Feb-08 19:32N 31°21' E 121°30'0 0.1
2016-Feb-08 18:30N 31°21' E 121°31'6574015.9
2016-Feb-08 18:20N 23°01' E 113°32'0 0.1
2016-Feb-08 17:33N 23°01' E 113°32'65744634.3
2016-Feb-08 17:32N 31°21' E 121°31'0 0.0
2016-Feb-08 16:33N 31°21' E 121°31'6571182746.5
2016-Feb-08 16:33N 23°01' E 113°32'0 0.1
2016-Feb-08 15:34N 23°01' E 113°32'65737549.5
2016-Feb-08 15:32N 31°21' E 121°31'0 0.1
2016-Feb-08 14:33N 31°21' E 121°31'65798557.0
2016-Feb-08 14:33N 23°01' E 113°32'657629.8
2016-Feb-08 13:30N 31°21' E 121°30'65798563.0
2016-Feb-08 13:30N 23°01' E 113°32'0 0.0
2016-Feb-08 12:33N 23°01' E 113°32'65727829.2
2016-Feb-08 12:32N 31°21' E 121°30'657676.8
2016-Feb-08 11:34N 23°01' E 113°32'65751420.4
2016-Feb-08 11:33N 31°21' E 121°30'0 0.0
2016-Feb-08 10:33N 31°21' E 121°30'657295687.1
2016-Feb-08 10:33N 23°01' E 113°32'0 0.1
2016-Feb-08 09:33N 23°01' E 113°32'6573968.7
2016-Feb-08 09:23N 31°21' E 121°30'657787.4
2016-Feb-08 08:33N 23°01' E 113°32'6574721.6
2016-Feb-08 08:25N 31°21' E 121°30'657768.2
2016-Feb-08 07:34N 23°01' E 113°32'6579538.4
2016-Feb-08 07:29N 31°21' E 121°31'657654.9
2016-Feb-08 06:29N 23°01' E 113°32'65740788.2
2016-Feb-08 06:28N 31°21' E 121°31'0 0.0
2016-Feb-08 05:33N 31°21' E 121°31'65717142.4
2016-Feb-08 05:31N 23°01' E 113°32'0 0.1
2016-Feb-08 04:32N 23°01' E 113°32'65722107.6
2016-Feb-08 04:30N 31°21' E 121°31'0 0.0
2016-Feb-08 03:32N 31°21' E 121°31'657139153.0
2016-Feb-08 03:32N 23°01' E 113°32'657657.7
2016-Feb-08 02:32N 31°21' E 121°30'6571685.6
2016-Feb-08 02:08N 23°01' E 113°32'0 0.1
2016-Feb-08 01:33N 23°01' E 113°32'65737536.7
2016-Feb-08 01:32N 31°21' E 121°30'0 0.0
2016-Feb-08 00:33N 31°21' E 121°30'657658.0
2016-Feb-07 23:33N 23°01' E 113°32'6577628.9
2016-Feb-07 23:28N 31°21' E 121°30'0 0.0
2016-Feb-07 22:33N 31°21' E 121°30'65733307.7
2016-Feb-07 22:32N 23°01' E 113°32'0 0.1
2016-Feb-07 21:33N 23°01' E 113°32'6573583.3
2016-Feb-07 21:22N 31°21' E 121°30'657796.0
2016-Feb-07 20:33N 23°01' E 113°32'65723415.5
2016-Feb-07 20:31N 31°21' E 121°30'657680.1
2016-Feb-07 19:33N 23°01' E 113°32'657394227.3
2016-Feb-07 19:33N 31°22' E 121°30'0 0.0
2016-Feb-07 18:33N 31°22' E 121°30'657788454.5
2016-Feb-07 18:33N 23°01' E 113°32'0 0.0
2016-Feb-07 17:33N 23°01' E 113°32'657107516.5
2016-Feb-07 17:33N 31°22' E 121°30'657661.5
2016-Feb-07 16:33N 23°01' E 113°32'65711210.8
2016-Feb-07 16:30N 31°22' E 121°30'657689.6
2016-Feb-07 15:33N 23°01' E 113°32'65746379.3
2016-Feb-07 15:32N 31°22' E 121°30'236951.1
2016-Feb-07 15:32N 31°40' E 121°13'0 0.1
2016-Feb-07 14:33N 31°40' E 121°13'235946.4
2016-Feb-07 14:33N 31°22' E 121°30'657262816.3
2016-Feb-07 14:33N 23°01' E 113°32'0 0.0
2016-Feb-07 13:33N 23°01' E 113°32'65750326.5
2016-Feb-07 13:33N 31°22' E 121°30'23325.1
2016-Feb-07 13:28N 31°40' E 121°13'2325.2
2016-Feb-07 12:33N 31°22' E 121°30'65744631.8
2016-Feb-07 12:32N 23°01' E 113°32'66168038.3
2016-Feb-07 12:32N 31°40' E 121°13'661667.9
2016-Feb-07 11:32N 23°01' E 113°32'657168953.3
2016-Feb-07 11:32N 31°22' E 121°30'0 0.0
2016-Feb-07 10:33N 31°22' E 121°30'6574778.5
2016-Feb-07 10:24N 23°01' E 113°32'6612079.7
2016-Feb-07 10:05N 31°40' E 121°13'0 0.0
2016-Feb-07 09:33N 31°40' E 121°13'2341598.9
2016-Feb-07 09:33N 31°22' E 121°30'65724136.5
2016-Feb-07 09:31N 23°01' E 113°32'0 0.0
2016-Feb-07 08:33N 23°01' E 113°32'65723655.2
2016-Feb-07 08:32N 31°22' E 121°30'2283.4
2016-Feb-07 08:16N 31°39' E 121°13'660928.0
2016-Feb-07 07:33N 23°01' E 113°32'6571182760.0
2016-Feb-07 07:33N 31°22' E 121°30'657661.1
2016-Feb-07 06:33N 23°01' E 113°32'657262833.7
2016-Feb-07 06:33N 31°22' E 121°30'23169.7
2016-Feb-07 06:25N 31°40' E 121°14'0 0.0
2016-Feb-07 05:33N 31°40' E 121°14'662125347.0
2016-Feb-07 05:33N 23°01' E 113°32'65716776.8
2016-Feb-07 05:31N 31°22' E 121°30'0 0.0
2016-Feb-07 04:33N 31°22' E 121°30'657124496.0
2016-Feb-07 04:32N 23°01' E 113°32'6627657.9
2016-Feb-07 04:27N 31°40' E 121°14'2325.0
2016-Feb-07 03:33N 31°22' E 121°30'65724385.8
2016-Feb-07 03:31N 23°01' E 113°32'0 0.0
2016-Feb-07 02:33N 23°01' E 113°32'657337915.3
2016-Feb-07 02:33N 31°22' E 121°30'0 0.0
2016-Feb-07 01:31N 31°22' E 121°30'6574301.0
2016-Feb-07 01:22N 23°01' E 113°32'0 0.1
2016-Feb-07 00:33N 23°01' E 113°32'6576738.7
2016-Feb-07 00:27N 31°22' E 121°30'0 0.1
2016-Feb-06 23:33N 31°22' E 121°30'657591360.0
2016-Feb-06 23:33N 23°01' E 113°32'0 0.1
2016-Feb-06 22:33N 23°01' E 113°32'65727506.6
2016-Feb-06 22:32N 31°22' E 121°30'657672.8
2016-Feb-06 21:33N 23°01' E 113°32'66026390.9
2016-Feb-06 21:32N 31°25' E 121°30'7 7.5
2016-Feb-06 20:33N 31°29' E 121°24'659139607.9
2016-Feb-06 20:33N 23°01' E 113°32'0 0.1
2016-Feb-06 19:33N 23°01' E 113°32'6596112.0
2016-Feb-06 19:27N 31°30' E 121°22'1138.2
2016-Feb-06 19:10N 31°21' E 121°30'1117.9
2016-Feb-06 18:34N 31°30' E 121°22'65964092.9
2016-Feb-06 18:33N 23°01' E 113°32'65711883.3
2016-Feb-06 18:30N 31°21' E 121°30'657699.5
2016-Feb-06 17:33N 23°01' E 113°32'65917698.2
2016-Feb-06 17:31N 31°30' E 121°22'11548.1
2016-Feb-06 17:30N 31°21' E 121°30'657696.6
2016-Feb-06 16:33N 23°01' E 113°32'65742230.7
2016-Feb-06 16:32N 31°21' E 121°30'11252.7
2016-Feb-06 16:30N 31°30' E 121°22'659699.4
2016-Feb-06 15:33N 23°01' E 113°32'65739415.6
2016-Feb-06 15:32N 31°21' E 121°30'11297.1
2016-Feb-06 15:30N 31°30' E 121°22'659695.6
2016-Feb-06 14:33N 23°01' E 113°32'6571182396.4
2016-Feb-06 14:33N 31°21' E 121°30'11182.7
2016-Feb-06 14:30N 31°30' E 121°22'1111.5
2016-Feb-06 13:33N 31°21' E 121°30'657214994.0
2016-Feb-06 13:33N 23°01' E 113°32'65913629.8
2016-Feb-06 13:30N 31°30' E 121°22'1111.4
2016-Feb-06 12:33N 31°21' E 121°30'65765689.1
2016-Feb-06 12:33N 23°01' E 113°32'6595391.3
2016-Feb-06 12:25N 31°30' E 121°22'1112.6
2016-Feb-06 11:33N 31°21' E 121°30'657181907.1
2016-Feb-06 11:33N 23°01' E 113°32'657659.3
2016-Feb-06 10:33N 31°21' E 121°30'65932948.3
2016-Feb-06 10:32N 22°58' E 113°32'659668.1
2016-Feb-06 09:33N 31°21' E 121°30'1167.0
2016-Feb-06 09:23N 31°31' E 121°23'1113.8
2016-Feb-06 08:33N 31°21' E 121°30'115843.4
2016-Feb-06 08:33N 31°31' E 121°23'1111.0
2016-Feb-06 07:31N 31°21' E 121°30'11364.7
2016-Feb-06 07:29N 31°31' E 121°23'1112.1
2016-Feb-06 06:33N 31°21' E 121°30'11480.6
2016-Feb-06 06:32N 31°31' E 121°23'0 0.0
2016-Feb-06 05:28N 31°31' E 121°23'0 0.0
2016-Feb-06 01:15N 31°31' E 121°23'0 0.0
2016-Feb-05 23:08N 31°31' E 121°23'0 0.0
2016-Feb-05 22:32N 31°31' E 121°23'0 0.0
2016-Feb-05 21:30N 31°31' E 121°23'0 0.0
2016-Feb-05 20:30N 31°31' E 121°23'0 0.0
2016-Feb-05 19:32N 31°31' E 121°23'0 0.0
2016-Feb-05 18:28N 31°31' E 121°23'0 0.0
2016-Feb-05 17:22N 31°31' E 121°23'0 0.0
2016-Feb-05 13:22N 31°31' E 121°23'0 0.0
2016-Feb-05 11:14N 31°31' E 121°23'0 0.0
2016-Feb-05 10:29N 31°31' E 121°23'0 0.2
2016-Feb-05 09:33N 31°30' E 121°23'659131.7
2016-Feb-05 04:33N 23°02' E 113°31'6 5.9
2016-Feb-05 03:33N 23°06' E 113°26'0 0.0
2016-Feb-05 02:33N 23°06' E 113°26'0 0.0
2016-Feb-05 01:33N 23°06' E 113°26'6592001.6
2016-Feb-05 01:13N 31°31' E 121°21'659989.9
2016-Feb-05 00:33N 23°06' E 113°26'65950450.4
2016-Feb-05 00:33N 31°32' E 121°20'659667.4
2016-Feb-04 23:33N 23°05' E 113°26'65928570.8
2016-Feb-04 23:32N 31°32' E 121°20'0 0.0
2016-Feb-04 22:31N 31°32' E 121°20'659674.2
2016-Feb-04 21:32N 23°05' E 113°26'6597229.7
2016-Feb-04 21:27N 31°32' E 121°20'659734.8
2016-Feb-04 20:33N 23°05' E 113°26'0 0.0
2016-Feb-04 19:33N 23°05' E 113°26'0 0.0
2016-Feb-04 18:33N 23°05' E 113°26'619224229.7
2016-Feb-04 18:18N 49°18' W 122°53'0 0.0
2016-Feb-04 17:33N 49°18' W 122°53'619211145692.4
2016-Feb-04 17:33N 23°05' E 113°26'6594551.5
2016-Feb-04 17:24N 31°32' E 121°20'659775.4
2016-Feb-04 16:33N 23°05' E 113°26'61921173229.8
2016-Feb-04 16:33N 49°18' W 122°53'5396179860.2
2016-Feb-04 16:31N 31°32' E 121°20'659682.8
2016-Feb-04 15:33N 23°05' E 113°26'659790438.9
2016-Feb-04 15:33N 31°32' E 121°20'53961294994.8
2016-Feb-04 15:33N 49°18' W 122°53'61926223.0
2016-Feb-04 14:33N 23°05' E 113°26'61921238374.8
2016-Feb-04 14:33N 49°18' W 122°53'5396176590.0
2016-Feb-04 14:31N 31°32' E 121°20'658682.5
2016-Feb-04 13:33N 23°06' E 113°27'61911238232.1
2016-Feb-04 13:33N 49°18' W 122°53'5396882950.1
2016-Feb-04 13:33N 31°32' E 121°20'658665.4
2016-Feb-04 12:33N 23°06' E 113°27'658338407.0
2016-Feb-04 12:33N 31°32' E 121°20'53961942490.3
2016-Feb-04 12:33N 49°18' W 122°53'61916220.5
2016-Feb-04 11:33N 23°06' E 113°27'61911311068.2
2016-Feb-04 11:33N 49°18' W 122°53'0 0.0
2016-Feb-04 10:33N 49°18' W 122°53'6192928755.3
2016-Feb-04 10:33N 23°06' E 113°26'61926235.0
2016-Feb-04 09:33N 49°18' W 122°53'61924458254.0
2016-Feb-04 09:33N 23°05' E 113°27'0 0.0
2016-Feb-04 08:33N 23°05' E 113°27'61921486085.2
2016-Feb-04 08:33N 49°18' W 122°53'0 0.0
2016-Feb-04 07:33N 49°18' W 122°53'6194108239.7
2016-Feb-04 07:30N 22°58' E 113°32'66314455.1
2016-Feb-04 07:27N 31°41' E 121°10'53966015.5
2016-Feb-04 06:33N 49°18' W 122°53'0 0.0
2016-Feb-04 05:33N 49°18' W 122°53'539712478.6
2016-Feb-04 05:07N 31°21' E 121°30'0 0.0
2016-Feb-04 04:33N 31°21' E 121°30'5397747273.5
2016-Feb-04 04:33N 49°18' W 122°53'0 0.0
2016-Feb-04 03:33N 49°18' W 122°53'5397777164.5
2016-Feb-04 03:33N 31°21' E 121°30'53975437.8
2016-Feb-04 02:33N 49°18' W 122°53'539782677.1
2016-Feb-04 02:29N 31°21' E 121°30'53975777.3
2016-Feb-04 01:33N 49°18' W 122°53'539721563.8
2016-Feb-04 01:18N 31°21' E 121°30'53977201.3
2016-Feb-04 00:33N 49°18' W 122°53'539719428977.5
2016-Feb-04 00:33N 31°21' E 121°30'53975395.4
2016-Feb-03 23:33N 49°18' W 122°53'539750074.7
2016-Feb-03 23:27N 31°21' E 121°30'53976052.6
2016-Feb-03 22:33N 49°18' W 122°53'539782676.4
2016-Feb-03 22:29N 31°21' E 121°30'53975773.8
2016-Feb-03 21:33N 49°18' W 122°53'5394129454.6
2016-Feb-03 21:31N 31°25' E 121°30'53945626.8
2016-Feb-03 20:33N 49°18' W 122°53'0 0.0
2016-Feb-03 19:33N 49°18' W 122°53'0 0.0
2016-Feb-03 18:33N 49°18' W 122°53'0 0.0
2016-Feb-03 17:33N 49°18' W 122°53'0 0.0
2016-Feb-03 16:33N 49°18' W 122°53'0 0.0
2016-Feb-03 15:33N 49°18' W 122°53'0 0.0
2016-Feb-03 14:33N 49°18' W 122°53'0 0.0
2016-Feb-03 13:33N 49°18' W 122°53'0 0.0
2016-Feb-03 12:33N 49°18' W 122°53'0 0.0
2016-Feb-03 11:33N 49°18' W 122°53'0 0.0
2016-Feb-03 10:33N 49°18' W 122°53'0 0.0
2016-Feb-03 09:33N 49°18' W 122°53'0 0.0
2016-Feb-03 08:33N 49°18' W 122°53'0 0.0
2016-Feb-03 07:33N 49°18' W 122°53'0 0.0
2016-Feb-03 06:33N 49°18' W 122°53'53963237585.2
2016-Feb-03 06:33N 31°59' E 120°49'53965408.0
2016-Feb-03 05:33N 49°18' W 122°53'0 0.0
2016-Feb-03 04:33N 49°18' W 122°53'539640895.8
2016-Feb-03 04:25N 31°59' E 120°49'53966218.1
2016-Feb-03 03:33N 49°18' W 122°53'0 0.0
2016-Feb-03 02:33N 49°18' W 122°53'539612436.4
2016-Feb-03 02:07N 31°59' E 120°49'53969541.1
2016-Feb-03 01:33N 49°18' W 122°53'539614107.3
2016-Feb-03 01:10N 31°59' E 120°49'53968734.6
2016-Feb-03 00:33N 49°18' W 122°53'0 0.0
2016-Feb-02 23:33N 49°18' W 122°53'0 0.0
2016-Feb-02 22:33N 49°18' W 122°53'0 0.0
2016-Feb-02 21:30N 49°18' W 122°53'539623689.6
2016-Feb-02 21:17N 31°59' E 120°49'53967471.3
2016-Feb-02 20:33N 49°18' W 122°53'0 0.0
2016-Feb-02 19:33N 49°18' W 122°53'0 0.0
2016-Feb-02 18:27N 49°18' W 122°53'0 0.0
2016-Feb-02 17:33N 49°18' W 122°53'175114166.4
2016-Feb-02 17:26N 29°33' W 095°04'17511998.1
2016-Feb-02 16:33N 49°18' W 122°53'175175048.0
2016-Feb-02 16:32N 29°33' W 095°04'0 0.0
2016-Feb-02 15:32N 29°33' W 095°04'175113855.0
2016-Feb-02 15:24N 49°18' W 122°53'539516715.7
2016-Feb-02 15:05N 31°59' E 120°49'539510233.7
2016-Feb-02 14:33N 49°18' W 122°53'175175048.0
2016-Feb-02 14:32N 29°33' W 095°04'743326600.4
2016-Feb-02 14:15N 32°00' E 120°46'3 4.3
2016-Feb-02 13:32N 32°00' E 120°42'74371673244.1
2016-Feb-02 13:32N 29°33' W 095°04'175165666.9
2016-Feb-02 13:30N 49°18' W 122°53'17511799.6
2016-Feb-02 12:32N 29°33' W 095°04'1751180114.8
2016-Feb-02 12:31N 49°18' W 122°53'0 0.0
2016-Feb-02 11:33N 49°18' W 122°53'175174165.1
2016-Feb-02 11:32N 29°33' W 095°04'17511792.5
2016-Feb-02 10:33N 49°18' W 122°53'175175048.0
2016-Feb-02 10:32N 29°33' W 095°04'17511793.5
2016-Feb-02 09:33N 49°18' W 122°53'61944459477.8
2016-Feb-02 09:33N 22°59' E 113°32'8157376455.2
2016-Feb-02 09:32N 29°33' W 095°04'743523192.6
2016-Feb-02 09:13N 32°02' E 120°43'4 5.8
2016-Feb-02 08:32N 32°01' E 120°48'74316688285.6
2016-Feb-02 08:32N 29°33' W 095°04'175165667.0
2016-Feb-02 08:30N 49°18' W 122°53'0 0.0
2016-Feb-02 07:33N 49°18' W 122°53'175175952.2
2016-Feb-02 07:32N 29°33' W 095°04'7430107427.5
2016-Feb-02 07:28N 31°57' E 120°52'53965945.6
2016-Feb-02 06:33N 49°18' W 122°53'61922026507.2
2016-Feb-02 06:33N 23°06' E 113°26'8157396842.7
2016-Feb-02 06:32N 29°33' W 095°04'17511794.5
2016-Feb-02 05:33N 49°18' W 122°53'61921714738.9
2016-Feb-02 05:33N 23°06' E 113°26'8157402278.8
2016-Feb-02 05:32N 29°33' W 095°04'17511792.9
2016-Feb-02 04:33N 49°18' W 122°53'61922026509.6
2016-Feb-02 04:33N 23°06' E 113°26'8157402279.1
2016-Feb-02 04:32N 29°33' W 095°04'17511794.0
2016-Feb-02 03:33N 49°18' W 122°53'61922476845.1
2016-Feb-02 03:33N 23°06' E 113°26'8157386399.6
2016-Feb-02 03:32N 29°33' W 095°04'17511793.0
2016-Feb-02 02:33N 49°18' W 122°53'61922786450.7
2016-Feb-02 02:33N 23°06' E 113°26'8157386399.5
2016-Feb-02 02:32N 29°33' W 095°04'81568332.3
2016-Feb-02 01:33N 23°06' E 113°27'8156396797.8
2016-Feb-02 01:32N 29°33' W 095°04'175113794.4
2016-Feb-02 01:24N 49°18' W 122°53'0 0.0
2016-Feb-02 00:33N 49°18' W 122°53'61911013094.8
2016-Feb-02 00:33N 23°06' E 113°27'8156473583.6
2016-Feb-02 00:32N 29°33' W 095°04'17511793.5
2016-Feb-01 23:33N 49°18' W 122°53'6191268531.1
2016-Feb-01 23:32N 23°06' E 113°27'815629362165.8
2016-Feb-01 23:32N 29°33' W 095°04'17511792.9
2016-Feb-01 22:33N 49°18' W 122°53'61915572021.2
2016-Feb-01 22:33N 23°06' E 113°27'8156367027.1
2016-Feb-01 22:32N 29°33' W 095°04'17511793.5
2016-Feb-01 21:34N 49°18' W 122°53'175175952.2
2016-Feb-01 21:32N 29°33' W 095°04'17511692.8
2016-Feb-01 20:30N 49°18' W 122°53'1751110596.8
2016-Feb-01 20:29N 29°33' W 095°04'0 0.0
2016-Feb-01 19:32N 29°33' W 095°04'175150432.3
2016-Feb-01 19:30N 49°18' W 122°53'61911061337.4
2016-Feb-01 19:30N 23°06' E 113°27'0 0.0
2016-Feb-01 18:33N 23°06' E 113°27'8156554003.3
2016-Feb-01 18:32N 29°33' W 095°04'175150432.2
2016-Feb-01 18:30N 49°18' W 122°53'17511814.6
2016-Feb-01 17:32N 29°33' W 095°04'8157978811.3
2016-Feb-01 17:32N 23°06' E 113°26'6192234630.1
2016-Feb-01 17:30N 49°18' W 122°53'61926544.3
2016-Feb-01 16:33N 23°06' E 113°26'8157425570.1
2016-Feb-01 16:32N 29°33' W 095°04'175112998.0
2016-Feb-01 16:24N 49°18' W 122°53'0 0.0
2016-Feb-01 15:33N 49°18' W 122°53'6192796066.6
2016-Feb-01 15:33N 23°06' E 113°26'81571048726.0
2016-Feb-01 15:32N 29°33' W 095°04'81578288.0
2016-Feb-01 14:33N 23°06' E 113°26'619222289863.8
2016-Feb-01 14:33N 49°18' W 122°53'1751112571.8
2016-Feb-01 14:32N 29°33' W 095°04'81578335.0
2016-Feb-01 13:33N 23°06' E 113°26'8157386372.6
2016-Feb-01 13:32N 29°33' W 095°04'175151672.3
2016-Feb-01 13:30N 49°18' W 122°53'61926550.1
2016-Feb-01 12:33N 23°06' E 113°26'8157396815.2
2016-Feb-01 12:32N 29°33' W 095°04'175149638.1
2016-Feb-01 12:30N 49°18' W 122°53'61926429.2
2016-Feb-01 11:32N 23°06' E 113°26'81577341088.3
2016-Feb-01 11:32N 29°33' W 095°04'175149250.4
2016-Feb-01 11:30N 49°18' W 122°53'17511815.7
2016-Feb-01 10:32N 29°33' W 095°04'175149638.1
2016-Feb-01 10:30N 49°18' W 122°53'17511814.6
2016-Feb-01 09:32N 29°33' W 095°04'175150032.0
2016-Feb-01 09:30N 49°18' W 122°53'17511814.6
2016-Feb-01 08:32N 29°33' W 095°04'175150839.0
2016-Feb-01 08:30N 49°18' W 122°53'17511814.1
2016-Feb-01 07:32N 29°33' W 095°04'175150432.3
2016-Feb-01 07:30N 49°18' W 122°53'517992299.0
2016-Feb-01 07:27N 38°59' E 117°43'51795793.8
2016-Feb-01 06:33N 49°18' W 122°53'5177887552.6
2016-Feb-01 06:33N 38°57' E 117°47'7320798555.7
2016-Feb-01 06:32N 29°33' W 095°04'0 0.0
2016-Feb-01 05:32N 29°33' W 095°04'175150432.1
2016-Feb-01 05:30N 49°18' W 122°53'17511814.6
2016-Feb-01 04:32N 29°33' W 095°04'175150032.0
2016-Feb-01 04:30N 49°18' W 122°53'17511814.6
2016-Feb-01 03:32N 29°33' W 095°04'175150031.9
2016-Feb-01 03:30N 49°18' W 122°53'17511815.2
2016-Feb-01 02:32N 29°33' W 095°04'175150032.0
2016-Feb-01 02:30N 49°18' W 122°53'17511814.6
2016-Feb-01 01:32N 29°33' W 095°04'175150032.0
2016-Feb-01 01:30N 49°18' W 122°53'17511815.2
2016-Feb-01 00:32N 29°33' W 095°04'175112971.2
2016-Feb-01 00:24N 49°18' W 122°53'0 0.0
2016-Jan-31 23:33N 49°18' W 122°53'1751112571.5
2016-Jan-31 23:32N 29°33' W 095°04'0 0.0
2016-Jan-31 22:32N 29°33' W 095°04'175150432.1
2016-Jan-31 22:30N 49°18' W 122°53'17511814.6
2016-Jan-31 21:32N 29°33' W 095°04'175112998.0
2016-Jan-31 21:24N 49°18' W 122°53'17512025.1
2016-Jan-31 20:32N 29°33' W 095°04'175149638.0
2016-Jan-31 20:30N 49°18' W 122°53'17511814.6
2016-Jan-31 19:32N 29°33' W 095°04'175150432.2
2016-Jan-31 19:30N 49°18' W 122°53'17511814.1
2016-Jan-31 18:32N 29°33' W 095°04'175150031.9
2016-Jan-31 18:30N 49°18' W 122°53'17511815.2
2016-Jan-31 17:32N 29°33' W 095°04'175151252.3
2016-Jan-31 17:30N 49°18' W 122°53'17511813.6
2016-Jan-31 16:32N 29°33' W 095°04'175149638.1
2016-Jan-31 16:30N 49°18' W 122°53'17511815.7
2016-Jan-31 15:32N 29°33' W 095°04'175150839.0
2016-Jan-31 15:30N 49°18' W 122°53'17511813.1
2016-Jan-31 14:32N 29°33' W 095°04'175150031.9
2016-Jan-31 14:30N 49°18' W 122°53'0 0.0
2016-Jan-31 13:33N 49°18' W 122°53'1751116741.4
2016-Jan-31 13:32N 29°33' W 095°04'815857248.8
2016-Jan-31 13:24N 22°53' E 113°34'8 9.7
2016-Jan-31 12:33N 23°00' E 113°31'8156624701.9
2016-Jan-31 12:32N 29°33' W 095°04'175150031.9
2016-Jan-31 12:30N 49°18' W 122°53'0 0.0
2016-Jan-31 11:33N 49°18' W 122°53'1751114618.8
2016-Jan-31 11:32N 29°33' W 095°04'81563262429.4
2016-Jan-31 11:32N 23°06' E 113°27'65618451.0
2016-Jan-31 11:30N 31°21' E 121°30'53975699.3
2016-Jan-31 10:33N 49°18' W 122°53'6191518321.5
2016-Jan-31 10:33N 23°06' E 113°27'81562669259.4
2016-Jan-31 10:32N 29°33' W 095°04'74204451773.5
2016-Jan-31 10:32N 31°21' E 121°30'0 0.1
2016-Jan-31 09:33N 31°21' E 121°30'74201027336.4
2016-Jan-31 09:32N 29°33' W 095°04'81561012478.1
2016-Jan-31 09:32N 23°06' E 113°27'6191232164.8
2016-Jan-31 09:30N 49°18' W 122°53'61916526.4
2016-Jan-31 08:33N 23°06' E 113°27'619111143911.4
2016-Jan-31 08:33N 49°18' W 122°53'1751114618.8
2016-Jan-31 08:32N 29°33' W 095°04'7420503976.6
2016-Jan-31 08:32N 31°21' E 121°30'656668.9
2016-Jan-31 07:33N 23°06' E 113°27'81561957457.6
2016-Jan-31 07:32N 29°33' W 095°04'175149250.4
2016-Jan-31 07:30N 49°18' W 122°53'0 0.0
2016-Jan-31 06:33N 49°18' W 122°53'61911392988.9
2016-Jan-31 06:33N 23°06' E 113°27'8156772680.3
2016-Jan-31 06:32N 29°33' W 095°04'81568296.7
2016-Jan-31 05:33N 23°06' E 113°27'  

Dump ship's entire track history